sensor_id;sensor_type;location;lat;lon;timestamp;pressure;altitude;pressure_sealevel;temperature;humidity
27202;BME280;14717;46.924;15.474;2023-05-02T00:01:48;97768.13;;;13.46;90.71
27202;BME280;14717;46.924;15.474;2023-05-02T00:04:14;97763.19;;;13.43;91.29
27202;BME280;14717;46.924;15.474;2023-05-02T00:06:40;97758.22;;;13.54;90.93
27202;BME280;14717;46.924;15.474;2023-05-02T00:09:06;97752.91;;;13.44;92.28
27202;BME280;14717;46.924;15.474;2023-05-02T00:11:32;97759.53;;;13.34;92.92
27202;BME280;14717;46.924;15.474;2023-05-02T00:13:58;97761.22;;;13.44;92.53
27202;BME280;14717;46.924;15.474;2023-05-02T00:16:23;97751.28;;;13.43;92.55
27202;BME280;14717;46.924;15.474;2023-05-02T00:18:48;97754.06;;;13.43;92.54
27202;BME280;14717;46.924;15.474;2023-05-02T00:21:14;97754.25;;;13.46;93.16
27202;BME280;14717;46.924;15.474;2023-05-02T00:23:39;97749.69;;;13.28;93.24
27202;BME280;14717;46.924;15.474;2023-05-02T00:26:07;97749.25;;;13.35;93.47
27202;BME280;14717;46.924;15.474;2023-05-02T00:28:32;97752.94;;;13.30;93.71
27202;BME280;14717;46.924;15.474;2023-05-02T00:30:58;97740.50;;;13.41;92.65
27202;BME280;14717;46.924;15.474;2023-05-02T00:33:23;97743.75;;;13.43;92.78
27202;BME280;14717;46.924;15.474;2023-05-02T00:35:48;97745.28;;;13.49;92.41
27202;BME280;14717;46.924;15.474;2023-05-02T00:38:14;97739.81;;;13.58;92.56
27202;BME280;14717;46.924;15.474;2023-05-02T00:40:49;97746.91;;;13.50;93.34
27202;BME280;14717;46.924;15.474;2023-05-02T00:43:16;97747.66;;;13.42;93.46
27202;BME280;14717;46.924;15.474;2023-05-02T00:45:42;97740.81;;;13.40;93.55
27202;BME280;14717;46.924;15.474;2023-05-02T00:48:08;97738.75;;;13.32;94.51
27202;BME280;14717;46.924;15.474;2023-05-02T00:50:36;97738.97;;;13.35;94.09
27202;BME280;14717;46.924;15.474;2023-05-02T00:53:03;97742.22;;;13.37;94.43
27202;BME280;14717;46.924;15.474;2023-05-02T00:55:28;97737.84;;;13.36;93.79
27202;BME280;14717;46.924;15.474;2023-05-02T00:57:55;97735.59;;;13.25;93.00
27202;BME280;14717;46.924;15.474;2023-05-02T01:00:22;97739.13;;;13.17;95.62
27202;BME280;14717;46.924;15.474;2023-05-02T01:02:59;97731.78;;;13.21;95.39
27202;BME280;14717;46.924;15.474;2023-05-02T01:05:44;97718.78;;;13.21;94.92
27202;BME280;14717;46.924;15.474;2023-05-02T01:08:19;97732.63;;;13.21;93.90
27202;BME280;14717;46.924;15.474;2023-05-02T01:13:32;97729.47;;;13.15;94.15
27202;BME280;14717;46.924;15.474;2023-05-02T01:15:58;97729.59;;;13.10;94.63
27202;BME280;14717;46.924;15.474;2023-05-02T01:18:34;97729.91;;;13.08;95.81
27202;BME280;14717;46.924;15.474;2023-05-02T01:21:05;97728.56;;;13.06;95.50
27202;BME280;14717;46.924;15.474;2023-05-02T01:26:51;97729.38;;;13.19;93.60
27202;BME280;14717;46.924;15.474;2023-05-02T01:29:22;97725.44;;;13.20;93.78
27202;BME280;14717;46.924;15.474;2023-05-02T01:31:49;97729.56;;;13.23;93.57
27202;BME280;14717;46.924;15.474;2023-05-02T01:34:18;97720.50;;;13.18;93.72
27202;BME280;14717;46.924;15.474;2023-05-02T01:36:46;97718.50;;;13.10;94.19
27202;BME280;14717;46.924;15.474;2023-05-02T01:39:15;97722.00;;;13.02;93.68
27202;BME280;14717;46.924;15.474;2023-05-02T01:41:43;97720.84;;;13.03;93.54
27202;BME280;14717;46.924;15.474;2023-05-02T01:44:10;97716.03;;;13.08;93.41
27202;BME280;14717;46.924;15.474;2023-05-02T01:46:37;97718.69;;;13.13;93.75
27202;BME280;14717;46.924;15.474;2023-05-02T01:49:05;97718.88;;;13.17;93.45
27202;BME280;14717;46.924;15.474;2023-05-02T01:51:32;97721.53;;;13.21;92.08
27202;BME280;14717;46.924;15.474;2023-05-02T01:54:02;97727.09;;;13.21;92.56
27202;BME280;14717;46.924;15.474;2023-05-02T01:56:34;97722.16;;;13.18;92.44
27202;BME280;14717;46.924;15.474;2023-05-02T01:59:04;97712.84;;;13.15;92.98
27202;BME280;14717;46.924;15.474;2023-05-02T02:01:31;97716.44;;;13.15;91.27
27202;BME280;14717;46.924;15.474;2023-05-02T02:03:58;97716.50;;;13.23;91.27
27202;BME280;14717;46.924;15.474;2023-05-02T02:06:24;97713.03;;;13.18;91.26
27202;BME280;14717;46.924;15.474;2023-05-02T02:08:51;97717.84;;;13.13;91.00
27202;BME280;14717;46.924;15.474;2023-05-02T02:11:22;97711.81;;;13.11;91.02
27202;BME280;14717;46.924;15.474;2023-05-02T02:13:54;97721.78;;;13.12;90.15
27202;BME280;14717;46.924;15.474;2023-05-02T02:16:24;97715.63;;;13.15;89.83
27202;BME280;14717;46.924;15.474;2023-05-02T02:18:55;97719.50;;;13.14;89.83
27202;BME280;14717;46.924;15.474;2023-05-02T02:21:22;97715.63;;;13.15;89.74
27202;BME280;14717;46.924;15.474;2023-05-02T02:23:53;97721.78;;;13.12;88.45
27202;BME280;14717;46.924;15.474;2023-05-02T02:26:21;97731.84;;;13.08;89.01
27202;BME280;14717;46.924;15.474;2023-05-02T02:28:47;97726.72;;;13.01;90.02
27202;BME280;14717;46.924;15.474;2023-05-02T02:31:12;97722.00;;;13.02;89.52
27202;BME280;14717;46.924;15.474;2023-05-02T02:33:38;97729.38;;;13.06;89.49
27202;BME280;14717;46.924;15.474;2023-05-02T02:36:11;97716.75;;;13.14;89.57
27202;BME280;14717;46.924;15.474;2023-05-02T02:39:01;97721.53;;;13.21;90.49
27202;BME280;14717;46.924;15.474;2023-05-02T02:41:35;97718.66;;;13.26;90.61
27202;BME280;14717;46.924;15.474;2023-05-02T02:44:17;97718.66;;;13.26;91.23
27202;BME280;14717;46.924;15.474;2023-05-02T02:47:14;97730.56;;;13.27;90.55
27202;BME280;14717;46.924;15.474;2023-05-02T02:49:50;97716.00;;;13.21;91.25
27202;BME280;14717;46.924;15.474;2023-05-02T02:54:59;97725.78;;;13.06;90.88
27202;BME280;14717;46.924;15.474;2023-05-02T03:02:31;97719.00;;;13.12;91.44
27202;BME280;14717;46.924;15.474;2023-05-02T03:04:59;97724.34;;;13.08;92.44
27202;BME280;14717;46.924;15.474;2023-05-02T03:07:28;97727.94;;;13.09;91.98
27202;BME280;14717;46.924;15.474;2023-05-02T03:09:54;97729.38;;;13.06;93.69
27202;BME280;14717;46.924;15.474;2023-05-02T03:12:19;97728.47;;;12.97;94.15
27202;BME280;14717;46.924;15.474;2023-05-02T03:14:45;97724.50;;;12.90;95.29
27202;BME280;14717;46.924;15.474;2023-05-02T03:17:11;97724.50;;;12.90;95.46
27202;BME280;14717;46.924;15.474;2023-05-02T03:19:36;97717.94;;;12.86;95.65
27202;BME280;14717;46.924;15.474;2023-05-02T03:22:02;97725.44;;;12.85;96.14
27202;BME280;14717;46.924;15.474;2023-05-02T03:24:28;97724.69;;;12.80;97.70
27202;BME280;14717;46.924;15.474;2023-05-02T03:26:57;97726.44;;;12.76;96.50
27202;BME280;14717;46.924;15.474;2023-05-02T03:29:24;97729.19;;;12.76;97.36
27202;BME280;14717;46.924;15.474;2023-05-02T03:31:50;97725.41;;;12.72;98.85
27202;BME280;14717;46.924;15.474;2023-05-02T03:34:15;97722.25;;;12.65;100.00
27202;BME280;14717;46.924;15.474;2023-05-02T03:36:41;97726.75;;;12.61;100.00
27202;BME280;14717;46.924;15.474;2023-05-02T03:39:06;97721.41;;;12.65;100.00
27202;BME280;14717;46.924;15.474;2023-05-02T03:41:32;97717.72;;;12.69;100.00
27202;BME280;14717;46.924;15.474;2023-05-02T03:43:57;97721.00;;;12.71;100.00
27202;BME280;14717;46.924;15.474;2023-05-02T03:46:22;97718.31;;;12.66;100.00
27202;BME280;14717;46.924;15.474;2023-05-02T03:48:48;97712.91;;;12.61;100.00
27202;BME280;14717;46.924;15.474;2023-05-02T03:51:13;97717.44;;;12.57;100.00
27202;BME280;14717;46.924;15.474;2023-05-02T03:53:39;97723.47;;;12.59;100.00
27202;BME280;14717;46.924;15.474;2023-05-02T03:56:05;97725.94;;;12.61;100.00
27202;BME280;14717;46.924;15.474;2023-05-02T03:58:32;97718.31;;;12.66;100.00
27202;BME280;14717;46.924;15.474;2023-05-02T04:00:58;97728.00;;;12.82;100.00
27202;BME280;14717;46.924;15.474;2023-05-02T04:03:23;97729.81;;;12.86;100.00
27202;BME280;14717;46.924;15.474;2023-05-02T04:05:48;97728.41;;;12.89;100.00
27202;BME280;14717;46.924;15.474;2023-05-02T04:08:16;97732.06;;;12.98;100.00
27202;BME280;14717;46.924;15.474;2023-05-02T04:10:41;97733.09;;;13.02;100.00
27202;BME280;14717;46.924;15.474;2023-05-02T04:13:06;97732.59;;;13.00;100.00
27202;BME280;14717;46.924;15.474;2023-05-02T04:15:32;97730.84;;;13.04;100.00
27202;BME280;14717;46.924;15.474;2023-05-02T04:17:57;97738.84;;;13.05;100.00
27202;BME280;14717;46.924;15.474;2023-05-02T04:20:23;97746.13;;;13.01;100.00
27202;BME280;14717;46.924;15.474;2023-05-02T04:22:48;97754.13;;;13.03;100.00
27202;BME280;14717;46.924;15.474;2023-05-02T04:25:15;97748.19;;;12.96;100.00
27202;BME280;14717;46.924;15.474;2023-05-02T04:27:40;97757.34;;;12.96;100.00
27202;BME280;14717;46.924;15.474;2023-05-02T04:30:06;97746.88;;;12.80;100.00
27202;BME280;14717;46.924;15.474;2023-05-02T04:32:32;97760.97;;;12.83;100.00
27202;BME280;14717;46.924;15.474;2023-05-02T04:34:58;97753.44;;;12.97;100.00
27202;BME280;14717;46.924;15.474;2023-05-02T04:37:24;97760.72;;;13.07;100.00
27202;BME280;14717;46.924;15.474;2023-05-02T04:39:49;97760.22;;;13.05;100.00
27202;BME280;14717;46.924;15.474;2023-05-02T04:42:15;97777.47;;;13.02;100.00
27202;BME280;14717;46.924;15.474;2023-05-02T04:44:40;97766.28;;;12.93;100.00
27202;BME280;14717;46.924;15.474;2023-05-02T04:47:05;97765.66;;;12.96;100.00
27202;BME280;14717;46.924;15.474;2023-05-02T04:49:31;97763.09;;;13.00;100.00
27202;BME280;14717;46.924;15.474;2023-05-02T04:51:56;97766.59;;;12.92;100.00
27202;BME280;14717;46.924;15.474;2023-05-02T04:54:22;97769.06;;;12.93;100.00
27202;BME280;14717;46.924;15.474;2023-05-02T04:56:47;97777.88;;;13.09;100.00
27202;BME280;14717;46.924;15.474;2023-05-02T04:59:12;97769.00;;;13.20;100.00
27202;BME280;14717;46.924;15.474;2023-05-02T05:01:38;97765.63;;;13.23;100.00
27202;BME280;14717;46.924;15.474;2023-05-02T05:04:03;97773.75;;;13.19;100.00
27202;BME280;14717;46.924;15.474;2023-05-02T05:06:29;97773.84;;;13.28;100.00
27202;BME280;14717;46.924;15.474;2023-05-02T05:08:55;97773.84;;;13.28;100.00
27202;BME280;14717;46.924;15.474;2023-05-02T05:11:21;97781.72;;;13.34;100.00
27202;BME280;14717;46.924;15.474;2023-05-02T05:13:47;97788.66;;;13.45;100.00
27202;BME280;14717;46.924;15.474;2023-05-02T05:16:12;97788.06;;;13.48;99.62
27202;BME280;14717;46.924;15.474;2023-05-02T05:18:38;97790.09;;;13.56;99.04
27202;BME280;14717;46.924;15.474;2023-05-02T05:21:07;97798.16;;;13.44;99.86
27202;BME280;14717;46.924;15.474;2023-05-02T05:23:33;97798.66;;;13.46;99.88
27202;BME280;14717;46.924;15.474;2023-05-02T05:26:07;97805.72;;;13.52;99.24
27202;BME280;14717;46.924;15.474;2023-05-02T05:28:32;97800.81;;;13.49;100.00
27202;BME280;14717;46.924;15.474;2023-05-02T05:31:04;97808.47;;;13.52;100.00
27202;BME280;14717;46.924;15.474;2023-05-02T05:33:30;97813.53;;;13.50;100.00
27202;BME280;14717;46.924;15.474;2023-05-02T05:35:55;97814.25;;;13.56;100.00
27202;BME280;14717;46.924;15.474;2023-05-02T05:38:21;97816.19;;;13.55;100.00
27202;BME280;14717;46.924;15.474;2023-05-02T05:40:48;97817.34;;;13.54;100.00
27202;BME280;14717;46.924;15.474;2023-05-02T05:43:14;97814.56;;;13.54;100.00
27202;BME280;14717;46.924;15.474;2023-05-02T05:45:40;97829.56;;;13.53;100.00
27202;BME280;14717;46.924;15.474;2023-05-02T05:48:05;97833.69;;;13.56;100.00
27202;BME280;14717;46.924;15.474;2023-05-02T05:50:31;97838.00;;;13.48;100.00
27202;BME280;14717;46.924;15.474;2023-05-02T05:52:56;97834.16;;;13.36;100.00
27202;BME280;14717;46.924;15.474;2023-05-02T05:55:21;97837.84;;;13.31;100.00
27202;BME280;14717;46.924;15.474;2023-05-02T05:57:47;97842.47;;;13.22;100.00
27202;BME280;14717;46.924;15.474;2023-05-02T06:00:12;97843.00;;;13.24;100.00
27202;BME280;14717;46.924;15.474;2023-05-02T06:02:38;97840.63;;;13.18;100.00
27202;BME280;14717;46.924;15.474;2023-05-02T06:05:03;97838.38;;;13.07;100.00
27202;BME280;14717;46.924;15.474;2023-05-02T06:07:29;97832.84;;;13.07;100.00
27202;BME280;14717;46.924;15.474;2023-05-02T06:09:54;97827.19;;;12.98;100.00
27202;BME280;14717;46.924;15.474;2023-05-02T06:12:19;97826.66;;;12.96;100.00
27202;BME280;14717;46.924;15.474;2023-05-02T06:14:45;97825.66;;;12.92;100.00
27202;BME280;14717;46.924;15.474;2023-05-02T06:17:10;97825.94;;;12.91;100.00
27202;BME280;14717;46.924;15.474;2023-05-02T06:19:36;97835.63;;;12.93;100.00
27202;BME280;14717;46.924;15.474;2023-05-02T06:22:01;97844.53;;;13.04;100.00
27202;BME280;14717;46.924;15.474;2023-05-02T06:24:26;97847.22;;;13.09;100.00
27202;BME280;14717;46.924;15.474;2023-05-02T06:26:55;97847.00;;;13.18;100.00
27202;BME280;14717;46.924;15.474;2023-05-02T06:29:20;97848.53;;;13.24;100.00
27202;BME280;14717;46.924;15.474;2023-05-02T06:31:45;97837.34;;;13.29;100.00
27202;BME280;14717;46.924;15.474;2023-05-02T06:34:11;97843.81;;;13.25;100.00
27202;BME280;14717;46.924;15.474;2023-05-02T06:36:36;97840.13;;;13.29;100.00
27202;BME280;14717;46.924;15.474;2023-05-02T06:39:01;97843.78;;;13.38;100.00
27202;BME280;14717;46.924;15.474;2023-05-02T06:41:26;97841.09;;;13.47;100.00
27202;BME280;14717;46.924;15.474;2023-05-02T06:43:52;97841.69;;;13.57;100.00
27202;BME280;14717;46.924;15.474;2023-05-02T06:46:17;97845.22;;;13.49;100.00
27202;BME280;14717;46.924;15.474;2023-05-02T06:48:44;97855.78;;;13.47;100.00
27202;BME280;14717;46.924;15.474;2023-05-02T06:51:09;97852.09;;;13.52;100.00
27202;BME280;14717;46.924;15.474;2023-05-02T06:53:35;97861.56;;;13.51;100.00
27202;BME280;14717;46.924;15.474;2023-05-02T06:56:00;97862.06;;;13.53;100.00
27202;BME280;14717;46.924;15.474;2023-05-02T06:58:26;97861.34;;;13.61;100.00
27202;BME280;14717;46.924;15.474;2023-05-02T07:00:51;97863.66;;;13.67;100.00
27202;BME280;14717;46.924;15.474;2023-05-02T07:03:16;97871.06;;;13.71;100.00
27202;BME280;14717;46.924;15.474;2023-05-02T07:05:42;97883.19;;;13.75;100.00
27202;BME280;14717;46.924;15.474;2023-05-02T07:08:07;97882.25;;;13.80;100.00
27202;BME280;14717;46.924;15.474;2023-05-02T07:10:33;97883.38;;;13.79;100.00
27202;BME280;14717;46.924;15.474;2023-05-02T07:12:58;97880.06;;;14.04;100.00
27202;BME280;14717;46.924;15.474;2023-05-02T07:15:24;97887.47;;;14.30;100.00
27202;BME280;14717;46.924;15.474;2023-05-02T07:17:49;97882.63;;;14.44;100.00
27202;BME280;14717;46.924;15.474;2023-05-02T07:20:14;97887.94;;;14.53;100.00
27202;BME280;14717;46.924;15.474;2023-05-02T07:22:40;97888.00;;;14.62;99.75
27202;BME280;14717;46.924;15.474;2023-05-02T07:25:06;97888.00;;;14.62;99.26
27202;BME280;14717;46.924;15.474;2023-05-02T07:27:31;97888.00;;;14.62;98.51
27202;BME280;14717;46.924;15.474;2023-05-02T07:29:56;97885.38;;;14.65;98.19
27202;BME280;14717;46.924;15.474;2023-05-02T07:32:22;97880.53;;;14.71;98.43
27202;BME280;14717;46.924;15.474;2023-05-02T07:34:48;97885.25;;;14.70;98.06
27202;BME280;14717;46.924;15.474;2023-05-02T07:37:14;97891.00;;;14.74;98.08
27202;BME280;14717;46.924;15.474;2023-05-02T07:39:39;97889.50;;;14.68;98.55
27202;BME280;14717;46.924;15.474;2023-05-02T07:42:04;97896.06;;;14.72;100.00
27202;BME280;14717;46.924;15.474;2023-05-02T07:44:31;97895.34;;;14.88;99.35
27202;BME280;14717;46.924;15.474;2023-05-02T07:46:57;97897.94;;;14.85;99.52
27202;BME280;14717;46.924;15.474;2023-05-02T07:49:22;97887.53;;;14.98;99.07
27202;BME280;14717;46.924;15.474;2023-05-02T07:51:48;97900.78;;;14.93;98.23
27202;BME280;14717;46.924;15.474;2023-05-02T07:54:14;97888.19;;;14.95;98.32
27202;BME280;14717;46.924;15.474;2023-05-02T07:56:39;97894.03;;;14.86;100.00
27202;BME280;14717;46.924;15.474;2023-05-02T07:59:04;97900.91;;;14.88;99.25
27202;BME280;14717;46.924;15.474;2023-05-02T08:01:30;97908.44;;;14.88;99.81
27202;BME280;14717;46.924;15.474;2023-05-02T08:03:55;97902.25;;;14.90;97.95
27202;BME280;14717;46.924;15.474;2023-05-02T08:06:20;97914.41;;;14.73;98.24
27202;BME280;14717;46.924;15.474;2023-05-02T08:08:46;97914.28;;;14.78;99.38
27202;BME280;14717;46.924;15.474;2023-05-02T08:11:11;97910.88;;;14.81;99.03
27202;BME280;14717;46.924;15.474;2023-05-02T08:13:37;97922.31;;;14.79;99.09
27202;BME280;14717;46.924;15.474;2023-05-02T08:16:02;97924.38;;;14.74;98.84
27202;BME280;14717;46.924;15.474;2023-05-02T08:18:27;97929.31;;;14.77;98.23
27202;BME280;14717;46.924;15.474;2023-05-02T08:20:54;97921.09;;;14.72;98.16
27202;BME280;14717;46.924;15.474;2023-05-02T08:23:20;97920.47;;;14.75;98.01
27202;BME280;14717;46.924;15.474;2023-05-02T08:25:45;97924.09;;;14.84;96.17
27202;BME280;14717;46.924;15.474;2023-05-02T08:28:10;97923.13;;;14.80;97.16
27202;BME280;14717;46.924;15.474;2023-05-02T08:30:36;97920.66;;;14.78;96.15
27202;BME280;14717;46.924;15.474;2023-05-02T08:33:01;97919.22;;;14.81;95.34
27202;BME280;14717;46.924;15.474;2023-05-02T08:35:29;97914.38;;;14.94;96.23
27202;BME280;14717;46.924;15.474;2023-05-02T08:37:55;97907.88;;;15.07;96.62
27202;BME280;14717;46.924;15.474;2023-05-02T08:40:21;97911.16;;;15.09;94.81
27202;BME280;14717;46.924;15.474;2023-05-02T08:42:46;97916.03;;;14.95;93.96
27202;BME280;14717;46.924;15.474;2023-05-02T08:45:12;97922.69;;;15.16;96.50
27202;BME280;14717;46.924;15.474;2023-05-02T08:47:42;97933.59;;;15.13;94.06
27202;BME280;14717;46.924;15.474;2023-05-02T08:50:09;97925.31;;;15.21;94.53
27202;BME280;14717;46.924;15.474;2023-05-02T08:52:35;97941.03;;;15.17;92.18
27202;BME280;14717;46.924;15.474;2023-05-02T08:55:02;97947.91;;;15.20;92.89
27202;BME280;14717;46.924;15.474;2023-05-02T08:57:29;97953.81;;;15.18;93.62
27202;BME280;14717;46.924;15.474;2023-05-02T08:59:55;97949.88;;;15.19;92.96
27202;BME280;14717;46.924;15.474;2023-05-02T09:04:57;97930.59;;;15.31;92.85
27202;BME280;14717;46.924;15.474;2023-05-02T09:07:25;97916.47;;;15.19;92.65
27202;BME280;14717;46.924;15.474;2023-05-02T09:09:51;97923.69;;;15.20;94.08
27202;BME280;14717;46.924;15.474;2023-05-02T09:12:22;97920.50;;;15.35;94.98
27202;BME280;14717;46.924;15.474;2023-05-02T09:15:07;97919.72;;;15.43;94.62
27202;BME280;14717;46.924;15.474;2023-05-02T09:17:43;97920.53;;;15.52;92.95
27202;BME280;14717;46.924;15.474;2023-05-02T09:20:13;97931.69;;;15.52;90.94
27202;BME280;14717;46.924;15.474;2023-05-02T09:22:50;97926.28;;;15.55;91.69
27202;BME280;14717;46.924;15.474;2023-05-02T09:25:18;97925.31;;;15.51;91.48
27202;BME280;14717;46.924;15.474;2023-05-02T09:27:54;97924.69;;;15.63;92.41
27202;BME280;14717;46.924;15.474;2023-05-02T09:30:24;97926.19;;;15.77;90.35
27202;BME280;14717;46.924;15.474;2023-05-02T09:32:50;97935.06;;;15.87;89.29
27202;BME280;14717;46.924;15.474;2023-05-02T09:35:17;97931.59;;;15.82;89.83
27202;BME280;14717;46.924;15.474;2023-05-02T09:37:52;97929.50;;;15.87;90.24
27202;BME280;14717;46.924;15.474;2023-05-02T09:40:18;97926.19;;;15.85;88.74
27202;BME280;14717;46.924;15.474;2023-05-02T09:42:44;97926.56;;;15.92;89.21
27202;BME280;14717;46.924;15.474;2023-05-02T09:45:18;97921.47;;;16.11;88.51
27202;BME280;14717;46.924;15.474;2023-05-02T09:47:43;97916.41;;;16.13;86.27
27202;BME280;14717;46.924;15.474;2023-05-02T09:50:09;97924.75;;;16.13;86.73
27202;BME280;14717;46.924;15.474;2023-05-02T09:52:34;97914.16;;;16.32;87.69
27202;BME280;14717;46.924;15.474;2023-05-02T09:55:00;97924.34;;;16.45;85.25
27202;BME280;14717;46.924;15.474;2023-05-02T09:57:38;97915.63;;;16.55;82.78
27202;BME280;14717;46.924;15.474;2023-05-02T10:00:06;97917.41;;;16.17;81.76
27202;BME280;14717;46.924;15.474;2023-05-02T10:02:34;97921.69;;;16.40;83.13
27202;BME280;14717;46.924;15.474;2023-05-02T10:04:59;97915.44;;;16.76;84.49
27202;BME280;14717;46.924;15.474;2023-05-02T10:07:25;97913.97;;;16.62;80.00
27202;BME280;14717;46.924;15.474;2023-05-02T10:09:51;97915.28;;;16.64;81.33
27202;BME280;14717;46.924;15.474;2023-05-02T10:12:22;97920.53;;;16.58;79.88
27202;BME280;14717;46.924;15.474;2023-05-02T10:14:54;97917.06;;;16.77;81.65
27202;BME280;14717;46.924;15.474;2023-05-02T10:17:26;97919.34;;;16.84;81.24
27202;BME280;14717;46.924;15.474;2023-05-02T10:19:57;97918.69;;;16.78;81.08
27202;BME280;14717;46.924;15.474;2023-05-02T10:22:24;97915.28;;;16.73;80.67
27202;BME280;14717;46.924;15.474;2023-05-02T10:24:52;97920.81;;;16.90;80.11
27202;BME280;14717;46.924;15.474;2023-05-02T10:27:17;97925.44;;;16.77;78.68
27202;BME280;14717;46.924;15.474;2023-05-02T10:29:45;97916.22;;;16.85;78.94
27202;BME280;14717;46.924;15.474;2023-05-02T10:32:12;97912.78;;;16.88;80.37
27202;BME280;14717;46.924;15.474;2023-05-02T10:34:40;97920.19;;;16.59;79.24
27202;BME280;14717;46.924;15.474;2023-05-02T10:37:05;97913.47;;;16.68;80.75
27202;BME280;14717;46.924;15.474;2023-05-02T10:39:31;97906.88;;;16.81;79.50
27202;BME280;14717;46.924;15.474;2023-05-02T10:41:58;97912.81;;;16.71;80.10
27202;BME280;14717;46.924;15.474;2023-05-02T10:44:37;97920.88;;;16.64;76.47
27202;BME280;14717;46.924;15.474;2023-05-02T10:47:32;97911.66;;;16.64;76.81
27202;BME280;14717;46.924;15.474;2023-05-02T10:50:02;97919.03;;;16.68;74.54
27202;BME280;14717;46.924;15.474;2023-05-02T10:52:29;97920.00;;;16.81;76.99
27202;BME280;14717;46.924;15.474;2023-05-02T10:55:21;97917.75;;;16.74;75.18
27202;BME280;14717;46.924;15.474;2023-05-02T11:00:24;97917.41;;;16.84;76.30
27202;BME280;14717;46.924;15.474;2023-05-02T11:02:50;97919.31;;;16.92;75.87
27202;BME280;14717;46.924;15.474;2023-05-02T11:05:15;97930.81;;;16.99;75.50
27202;BME280;14717;46.924;15.474;2023-05-02T11:07:41;97931.75;;;17.11;73.46
27202;BME280;14717;46.924;15.474;2023-05-02T11:12:48;97920.00;;;16.72;73.25
27202;BME280;14717;46.924;15.474;2023-05-02T11:18:09;97926.09;;;16.58;73.66
27202;BME280;14717;46.924;15.474;2023-05-02T11:20:42;97924.78;;;16.72;73.30
27202;BME280;14717;46.924;15.474;2023-05-02T11:26:04;97930.38;;;16.63;74.49
27202;BME280;14717;46.924;15.474;2023-05-02T11:34:02;97935.44;;;16.78;75.37
27202;BME280;14717;46.924;15.474;2023-05-02T11:36:31;97940.72;;;16.71;72.96
27202;BME280;14717;46.924;15.474;2023-05-02T11:39:00;97945.63;;;16.66;73.88
27202;BME280;14717;46.924;15.474;2023-05-02T11:41:39;97947.63;;;16.57;72.98
27202;BME280;14717;46.924;15.474;2023-05-02T11:44:05;97944.66;;;16.45;74.10
27202;BME280;14717;46.924;15.474;2023-05-02T11:46:30;97952.34;;;16.40;74.97
27202;BME280;14717;46.924;15.474;2023-05-02T11:48:55;97956.63;;;16.29;76.30
27202;BME280;14717;46.924;15.474;2023-05-02T11:51:22;97947.09;;;16.21;77.71
27202;BME280;14717;46.924;15.474;2023-05-02T11:53:47;97952.31;;;16.15;79.38
27202;BME280;14717;46.924;15.474;2023-05-02T11:56:13;97960.50;;;16.11;78.74
27202;BME280;14717;46.924;15.474;2023-05-02T11:58:39;97959.69;;;16.02;79.43
27202;BME280;14717;46.924;15.474;2023-05-02T12:01:14;97958.19;;;16.05;80.19
27202;BME280;14717;46.924;15.474;2023-05-02T12:03:39;97958.34;;;15.91;79.09
27202;BME280;14717;46.924;15.474;2023-05-02T12:06:09;97963.91;;;15.91;80.95
27202;BME280;14717;46.924;15.474;2023-05-02T12:08:36;97963.56;;;15.84;82.78
27202;BME280;14717;46.924;15.474;2023-05-02T12:11:01;97959.00;;;15.97;84.19
27202;BME280;14717;46.924;15.474;2023-05-02T12:13:27;97962.66;;;16.06;82.54
27202;BME280;14717;46.924;15.474;2023-05-02T12:15:53;97965.41;;;15.97;83.06
27202;BME280;14717;46.924;15.474;2023-05-02T12:18:20;97960.34;;;15.99;81.57
27202;BME280;14717;46.924;15.474;2023-05-02T12:20:48;97973.47;;;16.07;87.09
27202;BME280;14717;46.924;15.474;2023-05-02T12:23:15;97972.13;;;15.96;85.51
27202;BME280;14717;46.924;15.474;2023-05-02T12:25:41;97973.97;;;16.17;86.14
27202;BME280;14717;46.924;15.474;2023-05-02T12:28:07;97965.66;;;16.26;85.08
27202;BME280;14717;46.924;15.474;2023-05-02T12:30:34;97970.56;;;16.20;83.32
27202;BME280;14717;46.924;15.474;2023-05-02T12:33:01;97978.69;;;16.00;84.43
27202;BME280;14717;46.924;15.474;2023-05-02T12:35:27;97962.72;;;15.75;83.53
27202;BME280;14717;46.924;15.474;2023-05-02T12:37:53;97981.03;;;15.60;85.44
27202;BME280;14717;46.924;15.474;2023-05-02T12:40:19;97968.88;;;15.56;85.78
27202;BME280;14717;46.924;15.474;2023-05-02T12:43:01;97974.25;;;15.52;86.33
27202;BME280;14717;46.924;15.474;2023-05-02T12:45:32;97970.31;;;15.45;86.72
27202;BME280;14717;46.924;15.474;2023-05-02T12:48:21;97974.09;;;15.49;89.74
27202;BME280;14717;46.924;15.474;2023-05-02T12:50:45;97979.06;;;15.60;87.29
27202;BME280;14717;46.924;15.474;2023-05-02T12:53:10;97990.94;;;15.44;84.52
27202;BME280;14717;46.924;15.474;2023-05-02T12:55:36;97986.75;;;15.25;85.35
27202;BME280;14717;46.924;15.474;2023-05-02T12:58:05;97990.31;;;15.17;85.75
27202;BME280;14717;46.924;15.474;2023-05-02T13:00:32;97984.59;;;15.00;86.10
27202;BME280;14717;46.924;15.474;2023-05-02T13:02:58;97986.88;;;14.98;87.90
27202;BME280;14717;46.924;15.474;2023-05-02T13:05:24;97991.63;;;14.97;86.76
27202;BME280;14717;46.924;15.474;2023-05-02T13:07:50;97994.19;;;14.86;88.42
27202;BME280;14717;46.924;15.474;2023-05-02T13:10:15;97990.47;;;14.98;89.92
27202;BME280;14717;46.924;15.474;2023-05-02T13:12:43;97995.75;;;14.78;89.71
27202;BME280;14717;46.924;15.474;2023-05-02T13:15:09;97982.47;;;14.75;90.92
27202;BME280;14717;46.924;15.474;2023-05-02T13:17:34;97986.78;;;14.81;91.64
27202;BME280;14717;46.924;15.474;2023-05-02T13:20:00;97992.97;;;14.78;92.78
27202;BME280;14717;46.924;15.474;2023-05-02T13:22:26;97992.41;;;14.68;90.93